Home Latest Filings Latest Buys Latest Sells Institutions Derivatives Hot Buys Data Screener Email Alerts Insider Charts
Our LatestBuys shows insider buys grouped by companies.
Members can see real-time insider transactions as well as historical ones. Become a Member
Latest Buys Filed . Total 71 Records.
Buy(P) /
Sell(S)
P/S date Filed Date Company Symbol Insider Relationship Share Amt. Unit Price Total Proceeds Shares Owned Details
P 2023-01-27 2023-01-30 09:11:02.0 ADAMS DIVERSIFIED EQUITY FUND, INC. ADX Nelson Jane Musser director 3,585 $15.41 $55,237.70 3,585 view
P 2023-01-27 2023-01-30 09:41:58.0 ADAMS DIVERSIFIED EQUITY FUND, INC. ADX JAMMET MARY CHRIS director 1,940 $15.46 $29,997.40 7,833 view
P 2023-01-27 2023-01-30 09:21:06.0 ADAMS NATURAL RESOURCES FUND, INC. PEO Nelson Jane Musser director 2,390 $23.13 $55,287.90 2,390 view
P 2023-01-27 2023-01-30 10:17:27.0 ADAMS NATURAL RESOURCES FUND, INC. PEO JAMMET MARY CHRIS director 1,315 $22.81 $29,990.90 8,899 view
P 2023-01-27 2023-01-30 09:38:47.0 Applied Blockchain, Inc. APLD Cummins Wes CEO 25,000 $2.96 $74,000.00 1,795,690 view
P 2023-01-30 2023-01-30 16:38:00.0 BEACON ROOFING SUPPLY INC BECN CD&R Boulder Holdings, L.P. various 10% owner 107,185 $55.98 $5,999,950.00 1.50721E7 view
P 2023-01-26 2023-01-30 11:37:25.0 BIOMERICA INC BMRA Coste Catherine director other 2,190 $2.96 $6,482.40 43,790 view
P 2023-01-27 2023-01-30 09:34:02.0 BioRestorative Therapies, Inc. BRTX ALSTODT LANCE CEO 200 $3.01 $602.00 186,921 view
P 2022-05-23 2023-01-30 16:49:02.0 CAPITAL ONE FINANCIAL CORP COF Blinde Neal officer (President, Commercial Banking) 31 $119.07 $3,691.17 142,675 view
P 2023-01-27 2023-01-30 20:12:58.0 Clear Channel Outdoor Holdings, Inc. CCO Ares Partners Holdco LLC various various various various various various 10% owner 525,902 $1.80 $944,993.00 5.5329E7 view
P 2023-01-26 2023-01-30 20:12:58.0 Clear Channel Outdoor Holdings, Inc. CCO Ares Partners Holdco LLC various various various various various various 10% owner 597,518 $1.73 $1,036,510.00 5.48031E7 view
P 2023-01-27 2023-01-30 20:09:30.0 Clear Channel Outdoor Holdings, Inc. CCO ACOF Investment Management LLC various various various various various various various various various 10% owner 525,902 $1.80 $944,993.00 5.5329E7 view
P 2023-01-26 2023-01-30 20:09:30.0 Clear Channel Outdoor Holdings, Inc. CCO ACOF Investment Management LLC various various various various various various various various various 10% owner 597,518 $1.73 $1,036,510.00 5.48031E7 view
P 2023-01-27 2023-01-30 12:26:06.0 ClearBridge Energy Midstream Opportunity Fund Inc. EMO Weinstein Boaz various 10% owner 6,124 $31.19 $191,008.00 2,046,800 view
P 2023-01-26 2023-01-30 12:26:06.0 ClearBridge Energy Midstream Opportunity Fund Inc. EMO Weinstein Boaz various 10% owner 11,182 $30.98 $346,418.00 2,040,680 view
P 2023-01-30 2023-01-30 16:04:49.0 Context Therapeutics Inc. CNTX Lehr Martin A. CEO 7,027 $0.70 $4,900.63 143,232 view
P 2023-01-30 2023-01-30 10:24:16.0 CTT PHARMACEUTICAL HOLDINGS, INC. CTTH CTT PHARMACEUTICAL HOLDINGS, INC. CEO 9,000 $0.03 $225.00 866,000 view
P 2023-01-27 2023-01-30 12:02:31.0 ENZO BIOCHEM INC ENZ Wolf James G. 10% owner 11,800 $1.40 $16,520.00 4,090,000 view
P 2023-01-27 2023-01-30 08:21:38.0 FARMERS NATIONAL BANC CORP /OH/ FMNB Thornton Andre director 368 $13.45 $4,949.60 368 view
P 2023-01-27 2023-01-30 08:14:42.0 FARMERS NATIONAL BANC CORP /OH/ FMNB CARNEY TIMOTHY officer (SEVP/Chief Banking Officer) 10,000 $13.41 $134,100.00 72,443 view
P 2023-01-27 2023-01-30 16:20:13.0 FIRST COMMONWEALTH FINANCIAL CORP /PA/ FCF Price T Michael CEO 13,212 $13.87 $183,250.00 321,756 view
P 2023-01-26 2023-01-30 17:49:02.0 GREENE COUNTY BANCORP INC GCBC Hada Tejraj S director 250 $46.30 $11,575.00 1,204 view
P 2023-01-26 2023-01-30 17:49:02.0 GREENE COUNTY BANCORP INC GCBC Hada Tejraj S director 250 $46.20 $11,550.00 954 view
P 2023-01-26 2023-01-30 17:49:02.0 GREENE COUNTY BANCORP INC GCBC Hada Tejraj S director 250 $46.40 $11,600.00 704 view
P 2023-01-26 2023-01-30 17:49:02.0 GREENE COUNTY BANCORP INC GCBC Hada Tejraj S director 250 $46.50 $11,625.00 454 view
P 2023-01-27 2023-01-30 08:04:03.0 Greenwich LifeSciences, Inc. GLSI Thompson Jaye officer (VP Clinical Reg Affairs) 250 $19.20 $4,800.00 256,995 view
P 2023-01-27 2023-01-30 18:57:21.0 Hudson Global, Inc. HSON Eberwein Jeffrey E. CEO 500 $25.98 $12,990.00 266,181 view
P 2023-01-26 2023-01-30 18:57:21.0 Hudson Global, Inc. HSON Eberwein Jeffrey E. CEO 441 $26.15 $11,532.20 265,622 view
P 2023-01-26 2023-01-30 18:57:21.0 Hudson Global, Inc. HSON Eberwein Jeffrey E. director officer (Chief Executive Officer) 59 $26.80 $1,581.20 265,681 view
P 2023-01-30 2023-01-30 18:57:21.0 Hudson Global, Inc. HSON Eberwein Jeffrey E. CEO 1,000 $25.01 $25,010.00 267,181 view
P 2023-01-30 2023-01-30 16:06:46.0 KINGSWAY FINANCIAL SERVICES INC KFS Fitzgerald John Taylor Maloney CEO 258 $8.06 $2,079.48 1,881,880 view
P 2023-01-30 2023-01-30 16:04:39.0 KINGSWAY FINANCIAL SERVICES INC KFS Hansen Kent A CFO 186 $8.06 $1,499.16 106,302 view
P 2023-01-30 2023-01-30 17:54:35.0 Motorsport Games Inc. MSGM ZOI MIKE 10% owner 338,983 $2.95 $1,000,000.00 1,038,980 view
P 2023-01-27 2023-01-30 18:12:30.0 Movano Inc. MOVE FAIRBAIRN EMILY director 178,571 $0.00 $0.00 278,571 view
P 2023-01-27 2023-01-30 18:17:27.0 Movano Inc. MOVE Cogan Jeremy CFO 17,857 $0.00 $0.00 688,649 view
P 2023-01-27 2023-01-30 18:16:00.0 Movano Inc. MOVE Forte Nan Kirsten director 7,142 $0.00 $0.00 7,142 view
P 2023-01-27 2023-01-30 18:10:47.0 Movano Inc. MOVE Leabman Michael Aaron director officer (Chief Technology Officer) 17,857 $0.00 $0.00 28,457 view
P 2023-01-27 2023-01-30 18:09:19.0 Movano Inc. MOVE Mastrototaro John CEO 7,142 $0.00 $0.00 83,142 view
P 2023-01-27 2023-01-30 18:13:59.0 Movano Inc. MOVE Cullinan Brian director 7,142 $0.00 $0.00 226,366 view
P 2023-01-26 2023-01-30 16:06:08.0 POWER SOLUTIONS INTERNATIONAL, INC. PSIX Gagnon Neil 10% owner 63 $3.00 $189.00 479,871 view
P 2023-01-27 2023-01-30 19:27:42.0 PRECIGEN, INC. PGEN Shah Rutul R COO 9,142 $1.75 $15,998.50 62,037 view
P 2023-01-27 2023-01-30 19:19:54.0 PRECIGEN, INC. PGEN Thomasian Harry Jr. CFO 28,571 $1.75 $49,999.20 84,961 view
P 2023-01-27 2023-01-30 19:23:43.0 PRECIGEN, INC. PGEN Sabzevari Helen CEO 22,857 $1.75 $39,999.80 937,613 view
P 2023-01-27 2023-01-30 19:24:20.0 PRECIGEN, INC. PGEN Perez Jeffrey Thomas officer (SVP, IP Affairs) 28,571 $1.75 $49,999.20 381,012 view
P 2023-01-27 2023-01-30 10:52:58.0 RENN Fund, Inc. RCG STAHL MURRAY director officer (President and CEO) 45 $1.85 $83.25 50,857 view
P 2023-01-27 2023-01-30 10:52:58.0 RENN Fund, Inc. RCG STAHL MURRAY CEO 180 $1.85 $333.00 203,560 view
P 2023-01-27 2023-01-30 10:52:58.0 RENN Fund, Inc. RCG STAHL MURRAY director officer (President and CEO) 1 $1.85 $1.85 3,686 view
P 2023-01-27 2023-01-30 10:52:58.0 RENN Fund, Inc. RCG STAHL MURRAY director officer (President and CEO) 2 $1.85 $3.70 100 view
P 2023-01-27 2023-01-30 10:52:58.0 RENN Fund, Inc. RCG STAHL MURRAY CEO 182 $1.85 $336.68 206,825 view
P 2022-12-09 2023-01-30 11:37:25.0 SeqLL, Inc. SQL JONES DANIEL ROBERT CEO 5,733 $0.39 $2,236.44 2,392,360 view
P 2022-08-17 2023-01-30 11:37:41.0 SeqLL, Inc. SQL Milos Patrice M. director 1,200 $1.00 $1,200.00 10,000 view
P 2022-08-17 2023-01-30 11:37:41.0 SeqLL, Inc. SQL Milos Patrice M. director 8,800 $1.01 $8,888.00 10,000 view
P 2022-08-17 2023-01-30 11:38:07.0 SeqLL, Inc. SQL PFEFFER DAVID director 3,668 $1.00 $3,668.00 20,000 view
P 2022-08-17 2023-01-30 11:38:07.0 SeqLL, Inc. SQL PFEFFER DAVID director 16,332 $1.01 $16,495.30 20,000 view
P 2023-01-27 2023-01-30 08:04:03.0 SHERWIN WILLIAMS CO SHW MORIKIS JOHN G CEO 2,207 $226.70 $500,327.00 231,344 view
P 2023-01-27 2023-01-30 10:34:07.0 Texas Pacific Land Corp TPL HORIZON KINETICS ASSET MANAGEMENT LLC director 10% owner 2 $2,072.48 $4,144.96 104,786 view
P 2023-01-27 2023-01-30 10:34:07.0 Texas Pacific Land Corp TPL HORIZON KINETICS ASSET MANAGEMENT LLC director 10% owner 1 $2,084.44 $2,084.44 1,673 view
P 2023-01-27 2023-01-30 10:34:07.0 Texas Pacific Land Corp TPL HORIZON KINETICS ASSET MANAGEMENT LLC director 10% owner 1 $2,103.80 $2,103.80 43,271 view
P 2023-01-27 2023-01-30 10:34:07.0 Texas Pacific Land Corp TPL HORIZON KINETICS ASSET MANAGEMENT LLC director 10% owner 12 $2,079.69 $24,956.30 197,442 view
P 2023-01-27 2023-01-30 10:34:07.0 Texas Pacific Land Corp TPL HORIZON KINETICS ASSET MANAGEMENT LLC director 10% owner 3 $2,072.48 $6,217.44 2,046 view
P 2023-01-27 2023-01-30 10:34:07.0 Texas Pacific Land Corp TPL HORIZON KINETICS ASSET MANAGEMENT LLC director 10% owner 2 $2,072.48 $4,144.96 1,531 view
P 2023-01-26 2023-01-30 15:49:02.0 TRUSTCO BANK CORP N Y TRST MCCORMICK ROBERT J CEO 862 $33.34 $28,739.10 252,276 view
P 2023-01-26 2023-01-30 08:04:03.0 TRUSTCO BANK CORP N Y TRST SCHRECK ERIC W officer (EVP & TREASURER) 300 $33.30 $9,990.00 23,770 view
P 2023-01-27 2023-01-30 15:49:02.0 TRUSTCO BANK CORP N Y TRST MCCORMICK ROBERT J CEO 524 $34.53 $18,093.70 252,800 view
P 2023-01-27 2023-01-30 14:51:22.0 TRUSTCO BANK CORP N Y TRST SALVADOR SCOT R officer (EVP & EVP COMMERICAL BANKING) 1,019 $34.34 $34,992.50 46,357 view
P 2023-01-27 2023-01-30 18:04:45.0 TRUSTMARK CORP TRMK Conerly Tracy T director 1,500 $28.24 $42,360.00 1,500 view
P 2022-06-21 2023-01-30 19:31:59.0 Uber Technologies, Inc UBER AL-RUMAYYAN YASIR 250,000 $20.58 $5,145,000.00 388,241 view
P 2023-01-27 2023-01-30 16:50:10.0 VOXX International Corp VOXX LESSER PETER A director 500 $10.19 $5,095.00 10,000 view
P 2023-01-30 2023-01-30 16:15:02.0 WESBANCO INC WSBC STEMLER KERRY M director 500 $36.09 $18,044.90 15,718 view
P 2023-01-30 2023-01-30 16:15:02.0 WESBANCO INC WSBC STEMLER KERRY M director 500 $36.23 $18,116.70 101,498 view
P 2023-01-26 2023-01-30 18:01:33.0 Willdan Group, Inc. WLDN MacArthur Robert Symmes 11,392 $18.23 $207,676.00 1,524,980 view
* Filed by insider as open market transaction, but marked as private transaction by insidercow's proprietary method